createdAt,value
2019-01-25T00:04:14.261Z,33.47
2019-01-25T00:09:15.596Z,32.87
2019-01-25T00:14:16.982Z,32.50
2019-01-25T00:19:18.421Z,32.67
2019-01-25T00:24:19.854Z,30.23
2019-01-25T00:29:21.262Z,31.73
2019-01-25T00:34:22.652Z,30.60
2019-01-25T00:39:23.985Z,31.50
2019-01-25T00:44:25.461Z,30.67
2019-01-25T00:49:27.743Z,30.73
2019-01-25T00:54:29.100Z,31.43
2019-01-25T00:59:30.486Z,30.60
2019-01-25T01:04:31.844Z,30.37
2019-01-25T01:09:33.224Z,29.97
2019-01-25T01:14:34.589Z,32.07
2019-01-25T01:19:35.921Z,32.53
2019-01-25T01:24:37.321Z,31.67
2019-01-25T01:29:38.732Z,31.63
2019-01-25T01:34:40.122Z,29.53
2019-01-25T01:39:41.494Z,32.63
2019-01-25T01:44:42.874Z,31.10
2019-01-25T01:49:44.244Z,28.03
2019-01-25T01:54:45.604Z,28.53
2019-01-25T01:59:46.942Z,28.00
2019-01-25T02:04:48.322Z,29.17
2019-01-25T02:09:49.798Z,28.53
2019-01-25T02:14:51.233Z,29.03
2019-01-25T02:19:52.617Z,32.13
2019-01-25T02:24:53.994Z,32.27
2019-01-25T02:29:55.439Z,33.43
2019-01-25T02:34:56.867Z,34.07
2019-01-25T02:39:58.287Z,31.67
2019-01-25T02:44:59.654Z,33.13
2019-01-25T02:50:01.035Z,32.03
2019-01-25T02:55:05.366Z,32.90
2019-01-25T03:00:15.057Z,32.83
2019-01-25T03:05:18.787Z,32.63
2019-01-25T03:10:28.260Z,32.20
2019-01-25T03:15:25.228Z,32.30
2019-01-25T03:20:26.681Z,31.77
2019-01-25T03:25:28.276Z,29.57
2019-01-25T03:30:29.656Z,28.20
2019-01-25T03:35:31.079Z,28.70
2019-01-25T03:40:32.684Z,28.37
2019-01-25T03:45:34.126Z,29.47
2019-01-25T03:50:35.545Z,27.50
2019-01-25T03:55:37.077Z,25.80
2019-01-25T04:00:38.414Z,25.43
2019-01-25T04:05:40.051Z,26.43
2019-01-25T04:10:41.346Z,28.07
2019-01-25T04:15:42.745Z,25.83
2019-01-25T04:20:44.174Z,26.23
2019-01-25T04:25:45.562Z,28.23
2019-01-25T04:30:46.940Z,26.20
2019-01-25T04:35:48.523Z,25.67
2019-01-25T04:40:49.967Z,26.23
2019-01-25T04:45:51.347Z,25.33
2019-01-25T04:50:52.743Z,26.97
2019-01-25T04:55:54.242Z,26.33
2019-01-25T05:01:06.406Z,26.33
2019-01-25T05:06:08.357Z,28.03
2019-01-25T05:11:20.082Z,27.00
2019-01-25T05:16:20.195Z,26.40
2019-01-25T05:21:21.628Z,27.93
2019-01-25T05:26:22.998Z,30.50
2019-01-25T05:31:24.398Z,31.10
2019-01-25T05:36:25.775Z,29.87
2019-01-25T05:41:28.667Z,30.80
2019-01-25T05:46:30.318Z,29.93
2019-01-25T05:51:33.744Z,34.83
2019-01-25T05:56:40.412Z,36.80
2019-01-25T06:01:43.896Z,37.77
2019-01-25T06:06:45.281Z,35.60
2019-01-25T06:11:46.703Z,37.53
2019-01-25T06:16:48.111Z,39.90
2019-01-25T06:21:53.203Z,37.87
2019-01-25T06:26:54.638Z,37.60
2019-01-25T06:31:56.045Z,35.70
2019-01-25T06:36:57.469Z,35.00
2019-01-25T06:41:58.847Z,29.57
2019-01-25T06:47:00.217Z,29.27
2019-01-25T06:52:01.756Z,27.37
2019-01-25T06:57:05.041Z,27.27
2019-01-25T07:02:06.446Z,29.27
2019-01-25T07:07:09.712Z,26.77
2019-01-25T07:12:11.129Z,27.60
2019-01-25T07:17:12.466Z,28.00
2019-01-25T07:22:13.851Z,22.40
2019-01-25T07:27:15.194Z,26.30
2019-01-25T07:32:16.605Z,23.97
2019-01-25T07:37:18.052Z,22.27
2019-01-25T07:42:19.386Z,21.47
2019-01-25T07:47:20.794Z,23.20
2019-01-25T07:52:22.169Z,20.13
2019-01-25T07:57:23.723Z,20.03
2019-01-25T08:02:25.070Z,21.33
2019-01-25T08:07:26.522Z,21.13
2019-01-25T08:12:27.983Z,20.93
2019-01-25T08:17:29.405Z,21.33
2019-01-25T08:22:30.811Z,20.40
2019-01-25T08:27:32.213Z,21.47
2019-01-25T08:32:33.608Z,20.03
2019-01-25T08:37:35.121Z,20.13
2019-01-25T08:42:36.476Z,21.30
2019-01-25T08:47:38.000Z,21.07
2019-01-25T08:52:39.655Z,20.17
2019-01-25T08:57:41.211Z,18.13
2019-01-25T09:02:42.545Z,19.33
2019-01-25T09:07:44.244Z,19.00
2019-01-25T09:12:45.793Z,19.17
2019-01-25T09:17:47.391Z,19.80
2019-01-25T09:22:48.815Z,18.77
2019-01-25T09:27:50.205Z,19.63
2019-01-25T09:32:51.665Z,21.23
2019-01-25T09:37:53.144Z,21.53
2019-01-25T09:42:54.474Z,24.13
2019-01-25T09:47:55.891Z,23.03
2019-01-25T09:52:57.422Z,23.40
2019-01-25T09:58:10.435Z,24.40
2019-01-25T10:03:11.811Z,24.47
2019-01-25T10:08:13.197Z,24.97
2019-01-25T10:13:14.557Z,22.60
2019-01-25T10:18:15.984Z,25.70
2019-01-25T10:23:17.370Z,27.53
2019-01-25T10:28:18.766Z,22.33
2019-01-25T10:33:20.111Z,22.90
2019-01-25T10:38:21.544Z,23.03
2019-01-25T10:43:22.962Z,24.90
2019-01-25T10:48:24.290Z,23.63
2019-01-25T10:53:25.678Z,23.60
2019-01-25T10:58:27.034Z,21.17
2019-01-25T11:03:28.403Z,22.53
2019-01-25T11:08:29.782Z,22.90
2019-01-25T11:13:31.117Z,27.17
2019-01-25T11:18:32.820Z,24.07
2019-01-25T11:23:34.195Z,23.00
2019-01-25T11:28:35.641Z,24.23
2019-01-25T11:33:36.974Z,23.00
2019-01-25T11:38:38.470Z,24.10
2019-01-25T11:43:39.813Z,20.17
2019-01-25T11:48:41.217Z,21.40
2019-01-25T11:53:42.677Z,19.60
2019-01-25T11:58:44.111Z,21.03
2019-01-25T12:03:45.583Z,19.57
2019-01-25T12:08:47.034Z,20.90
2019-01-25T12:13:48.444Z,22.30
2019-01-25T12:18:49.886Z,21.37
2019-01-25T12:23:51.444Z,22.20
2019-01-25T12:28:52.804Z,22.93
2019-01-25T12:33:54.185Z,23.27
2019-01-25T12:38:55.572Z,26.30
2019-01-25T12:43:56.928Z,22.13
2019-01-25T12:48:58.496Z,25.47
2019-01-25T12:53:59.931Z,25.33
2019-01-25T12:59:01.341Z,24.40
2019-01-25T13:04:02.962Z,23.27
2019-01-25T13:09:07.154Z,18.53
2019-01-25T13:14:08.563Z,19.03
2019-01-25T13:19:09.939Z,19.87
2019-01-25T13:24:11.312Z,21.30
2019-01-25T13:29:12.683Z,21.50
2019-01-25T13:34:14.017Z,21.50
2019-01-25T13:39:15.397Z,22.87
2019-01-25T13:44:16.799Z,22.93
2019-01-25T13:49:18.213Z,23.93
2019-01-25T13:54:19.622Z,23.17
2019-01-25T13:59:21.058Z,22.70
2019-01-25T14:04:22.424Z,22.93
2019-01-25T14:09:23.811Z,22.87
2019-01-25T14:14:25.255Z,22.77
2019-01-25T14:19:26.642Z,20.17
2019-01-25T14:24:28.100Z,20.00
2019-01-25T14:29:29.466Z,19.43
2019-01-25T14:34:30.812Z,21.00
2019-01-25T14:39:32.191Z,19.60
2019-01-25T14:44:33.664Z,19.73
2019-01-25T14:49:34.987Z,21.73
2019-01-25T14:54:36.395Z,20.20
2019-01-25T14:59:37.847Z,18.03
2019-01-25T15:04:39.186Z,17.63
2019-01-25T15:09:40.563Z,17.87
2019-01-25T15:14:42.043Z,18.33
2019-01-25T15:19:44.733Z,15.80
2019-01-25T15:24:46.321Z,17.03
2019-01-25T15:29:47.746Z,14.50
2019-01-25T15:34:49.127Z,15.47
2019-01-25T15:39:50.593Z,15.67
2019-01-25T15:44:51.989Z,14.53
2019-01-25T15:49:53.440Z,12.83
2019-01-25T15:54:54.871Z,13.87
2019-01-25T15:59:56.255Z,14.03
2019-01-25T16:04:57.631Z,13.23
2019-01-25T16:09:59.064Z,11.23
2019-01-25T16:15:00.459Z,9.50
2019-01-25T16:20:03.420Z,10.07
2019-01-25T16:25:10.515Z,12.07
2019-01-25T16:30:18.539Z,12.63
2019-01-25T16:35:20.216Z,11.97
2019-01-25T16:40:28.182Z,9.97
2019-01-25T16:45:39.349Z,8.10
2019-01-25T16:50:40.907Z,10.00
2019-01-25T16:55:42.396Z,8.47
2019-01-25T17:00:43.867Z,8.13
2019-01-25T17:05:45.572Z,8.40
2019-01-25T17:10:46.993Z,8.43
2019-01-25T17:15:48.382Z,8.93
2019-01-25T17:20:49.845Z,9.00
2019-01-25T17:25:51.299Z,5.93
2019-01-25T17:30:52.736Z,10.53
2019-01-25T17:35:54.124Z,9.97
2019-01-25T17:40:55.513Z,8.20
2019-01-25T17:45:57.055Z,8.30
2019-01-25T17:50:58.658Z,8.63
2019-01-25T17:56:00.373Z,8.70
2019-01-25T18:01:01.846Z,7.97
2019-01-25T18:06:03.527Z,9.00
2019-01-25T18:11:05.926Z,8.83
2019-01-25T18:16:07.419Z,9.50
2019-01-25T18:21:08.963Z,9.33
2019-01-25T18:26:10.298Z,10.03
2019-01-25T18:31:17.423Z,10.00
2019-01-25T18:36:18.822Z,11.20
2019-01-25T18:41:20.268Z,10.37
2019-01-25T18:46:21.700Z,8.73
2019-01-25T18:51:23.176Z,9.23
2019-01-25T18:56:24.583Z,9.47
2019-01-25T19:01:26.136Z,9.43
2019-01-25T19:06:27.565Z,9.30
2019-01-25T19:11:29.089Z,10.17
2019-01-25T19:16:30.621Z,10.40
2019-01-25T19:21:31.955Z,8.10
2019-01-25T19:26:33.358Z,9.80
2019-01-25T19:31:34.823Z,8.50
2019-01-25T19:36:36.256Z,8.77
2019-01-25T19:41:37.641Z,10.40
2019-01-25T19:46:39.196Z,10.23
2019-01-25T19:51:40.572Z,8.67
2019-01-25T19:56:42.037Z,8.97
2019-01-25T20:01:43.504Z,10.37
2019-01-25T20:06:45.103Z,9.77
2019-01-25T20:11:46.519Z,10.83
2019-01-25T20:16:47.921Z,9.57
2019-01-25T20:21:49.346Z,9.63
2019-01-25T20:26:50.842Z,10.90
2019-01-25T20:31:52.180Z,9.70
2019-01-25T20:36:53.914Z,9.70
2019-01-25T20:41:55.316Z,10.37
2019-01-25T20:46:56.797Z,13.10
2019-01-25T20:51:58.169Z,13.33
2019-01-25T20:56:59.510Z,10.57
2019-01-25T21:02:00.950Z,8.60
2019-01-25T21:07:02.444Z,11.87
2019-01-25T21:12:03.953Z,10.43
2019-01-25T21:17:05.374Z,11.63
2019-01-25T21:22:06.773Z,11.10
2019-01-25T21:27:08.255Z,10.83
2019-01-25T21:32:09.702Z,11.00
2019-01-25T21:37:11.220Z,10.60
2019-01-25T21:42:12.636Z,10.90
2019-01-25T21:47:14.203Z,11.03
2019-01-25T21:52:16.020Z,11.77
2019-01-25T21:57:17.600Z,11.97
2019-01-25T22:02:18.986Z,11.57
2019-01-25T22:07:21.356Z,11.87
2019-01-25T22:12:22.870Z,12.37
2019-01-25T22:17:24.198Z,12.63
2019-01-25T22:22:25.960Z,12.67
2019-01-25T22:27:27.371Z,12.53
2019-01-25T22:32:28.731Z,13.97
2019-01-25T22:37:30.098Z,13.80
2019-01-25T22:42:31.452Z,12.70
2019-01-25T22:47:32.815Z,12.90
2019-01-25T22:52:34.191Z,13.40
2019-01-25T22:57:35.528Z,12.23
2019-01-25T23:02:37.031Z,14.67
2019-01-25T23:07:38.482Z,14.00
2019-01-25T23:12:39.922Z,14.47
2019-01-25T23:17:41.318Z,14.67
2019-01-25T23:22:42.682Z,15.70
2019-01-25T23:27:44.060Z,15.17
2019-01-25T23:32:45.697Z,14.83
2019-01-25T23:37:47.088Z,13.10
2019-01-25T23:42:48.714Z,14.57
2019-01-25T23:47:50.128Z,15.90
2019-01-25T23:52:51.530Z,14.50
2019-01-25T23:57:52.912Z,14.60
